PAFR METAR and TAF weather

Enter ICAO airport designator
Station Type Date Time Source
PAFR METAR 2019/08/21 22:58 UTC NOAA

PAFR 212258Z AUTO 35006KT 9SM CLR 18/06 A2968 RMK AO2 SLP057 T01750061 $


Station Type Date Time Source
PAFR Decoded METAR 2019/08/21 22:58 UTC NOAA

Station name not available
Aug 21, 2019 - 06:58 PM EDT / 2019.08.21 2258 UTC
Wind: from the N (350 degrees) at 7 MPH (6 KT):0
Visibility: 9 mile(s):0
Sky conditions: clear
Temperature: 63.5 F (17.5 C)
Dew Point: 43.0 F (6.1 C)
Relative Humidity: 47%
Pressure (altimeter): 29.68 in. Hg (1005 hPa)
ob: PAFR 212258Z AUTO 35006KT 9SM CLR 18/06 A2968 RMK AO2 SLP057 T01750061
cycle: 23

Station Type Date Time Source
PAFR TAF UTC NOAA

Error!

Example: see airport list